createdAt,value
2023-04-09T00:02:11.692Z,9.07
2023-04-09T00:04:39.070Z,9.35
2023-04-09T00:07:07.631Z,8.55
2023-04-09T00:09:34.848Z,8.67
2023-04-09T00:12:02.236Z,9.05
2023-04-09T00:14:29.451Z,8.70
2023-04-09T00:16:56.729Z,9.50
2023-04-09T00:19:23.994Z,8.93
2023-04-09T00:21:51.606Z,8.03
2023-04-09T00:24:18.857Z,7.97
2023-04-09T00:26:46.943Z,8.68
2023-04-09T00:29:14.150Z,8.57
2023-04-09T00:31:41.499Z,8.65
2023-04-09T00:34:08.837Z,8.30
2023-04-09T00:36:37.589Z,8.70
2023-04-09T00:39:04.863Z,8.88
2023-04-09T00:41:32.505Z,8.63
2023-04-09T00:43:59.816Z,8.00
2023-04-09T00:46:27.058Z,8.13
2023-04-09T00:48:54.502Z,9.00
2023-04-09T00:51:21.937Z,8.05
2023-04-09T00:53:49.226Z,7.90
2023-04-09T00:56:16.588Z,8.02
2023-04-09T00:58:43.848Z,7.73
2023-04-09T01:01:11.453Z,8.40
2023-04-09T01:03:38.950Z,7.63
2023-04-09T01:06:27.123Z,7.38
2023-04-09T01:09:08.273Z,7.82
2023-04-09T01:11:35.560Z,7.73
2023-04-09T01:14:16.109Z,8.65
2023-04-09T01:16:45.132Z,7.90
2023-04-09T01:19:40.808Z,8.00
2023-04-09T01:22:14.576Z,8.15
2023-04-09T01:24:57.303Z,7.77
2023-04-09T01:27:56.159Z,8.40
2023-04-09T01:30:23.687Z,8.45
2023-04-09T01:32:51.556Z,8.00
2023-04-09T01:35:18.811Z,9.05
2023-04-09T01:37:46.214Z,8.50
2023-04-09T01:40:13.465Z,8.50
2023-04-09T01:42:41.253Z,8.50
2023-04-09T01:45:08.821Z,8.70
2023-04-09T01:47:36.141Z,8.68
2023-04-09T01:50:03.857Z,8.83
2023-04-09T01:52:31.272Z,8.85
2023-04-09T01:54:58.931Z,9.98
2023-04-09T01:57:26.174Z,9.20
2023-04-09T01:59:53.409Z,9.60
2023-04-09T02:02:31.402Z,9.47
2023-04-09T02:04:58.716Z,9.50
2023-04-09T02:07:53.105Z,10.38
2023-04-09T02:10:20.620Z,9.80
2023-04-09T02:12:50.305Z,10.57
2023-04-09T02:15:19.207Z,8.80
2023-04-09T02:17:46.497Z,10.02
2023-04-09T02:20:18.610Z,9.27
2023-04-09T02:22:46.704Z,9.88
2023-04-09T02:25:14.205Z,8.82
2023-04-09T02:27:41.534Z,9.13
2023-04-09T02:30:09.068Z,9.15
2023-04-09T02:32:36.343Z,9.95
2023-04-09T02:35:03.892Z,8.88
2023-04-09T02:37:31.334Z,8.55
2023-04-09T02:39:58.612Z,8.63
2023-04-09T02:42:25.863Z,8.82
2023-04-09T02:44:53.099Z,9.10
2023-04-09T02:47:20.547Z,8.95
2023-04-09T02:49:47.780Z,9.30
2023-04-09T02:52:15.241Z,8.77
2023-04-09T02:54:42.486Z,9.77
2023-04-09T02:57:09.758Z,8.88
2023-04-09T02:59:39.118Z,9.10
2023-04-09T03:02:06.660Z,9.07
2023-04-09T03:04:34.002Z,9.70
2023-04-09T03:07:01.296Z,8.30
2023-04-09T03:09:29.382Z,8.57
2023-04-09T03:11:57.491Z,9.38
2023-04-09T03:14:25.002Z,9.85
2023-04-09T03:16:52.237Z,9.30
2023-04-09T03:19:19.502Z,8.52
2023-04-09T03:21:49.224Z,10.15
2023-04-09T03:24:18.037Z,9.35
2023-04-09T03:26:45.518Z,9.13
2023-04-09T03:29:15.420Z,9.07
2023-04-09T03:31:42.808Z,8.65
2023-04-09T03:34:10.324Z,9.05
2023-04-09T03:36:37.797Z,9.30
2023-04-09T03:39:10.993Z,8.27
2023-04-09T03:41:42.262Z,9.03
2023-04-09T03:44:13.725Z,8.63
2023-04-09T03:46:59.813Z,8.98
2023-04-09T03:49:28.556Z,9.15
2023-04-09T03:51:59.751Z,8.82
2023-04-09T03:54:34.945Z,9.33
2023-04-09T03:57:03.856Z,8.85
2023-04-09T03:59:31.343Z,9.27
2023-04-09T04:01:59.372Z,9.07
2023-04-09T04:04:28.631Z,9.57
2023-04-09T04:06:58.038Z,9.20
2023-04-09T04:09:35.904Z,8.55
2023-04-09T04:12:08.068Z,9.38
2023-04-09T04:14:46.943Z,9.15
2023-04-09T04:17:26.394Z,9.25
2023-04-09T04:19:55.312Z,9.20
2023-04-09T04:22:26.099Z,8.88
2023-04-09T04:24:56.558Z,8.90
2023-04-09T04:27:24.305Z,9.30
2023-04-09T04:29:51.709Z,10.25
2023-04-09T04:32:37.187Z,10.33
2023-04-09T04:35:09.131Z,9.30
2023-04-09T04:37:36.769Z,10.23
2023-04-09T04:40:05.451Z,9.73
2023-04-09T04:42:36.232Z,10.27
2023-04-09T04:45:10.087Z,10.37
2023-04-09T04:47:55.839Z,10.77
2023-04-09T04:50:23.192Z,10.63
2023-04-09T04:53:00.782Z,10.40
2023-04-09T04:55:35.902Z,10.75
2023-04-09T04:58:04.166Z,10.10
2023-04-09T05:00:40.409Z,10.02
2023-04-09T05:03:08.398Z,11.07
2023-04-09T05:05:58.052Z,12.48
2023-04-09T05:08:28.950Z,13.02
2023-04-09T05:10:57.473Z,14.13
2023-04-09T05:13:32.262Z,14.73
2023-04-09T05:16:00.496Z,14.10
2023-04-09T05:18:27.807Z,12.00
2023-04-09T05:20:55.033Z,11.98
2023-04-09T05:23:22.369Z,13.37
2023-04-09T05:25:50.357Z,14.85
2023-04-09T05:28:38.168Z,15.27
2023-04-09T05:31:15.716Z,13.35
2023-04-09T05:33:51.314Z,12.63
2023-04-09T05:36:23.767Z,13.23
2023-04-09T05:38:52.854Z,12.15
2023-04-09T05:41:20.429Z,11.57
2023-04-09T05:44:01.150Z,11.55
2023-04-09T05:46:29.502Z,11.40
2023-04-09T05:48:57.138Z,10.97
2023-04-09T05:51:26.652Z,11.30
2023-04-09T05:53:55.779Z,11.18
2023-04-09T05:56:23.501Z,12.15
2023-04-09T05:58:55.005Z,11.27
2023-04-09T06:01:22.324Z,12.50
2023-04-09T06:03:50.317Z,12.00
2023-04-09T06:06:17.804Z,11.90
2023-04-09T06:08:45.375Z,11.70
2023-04-09T06:11:13.185Z,12.80
2023-04-09T06:13:40.604Z,11.00
2023-04-09T06:16:08.772Z,10.45
2023-04-09T06:18:37.006Z,11.30
2023-04-09T06:21:07.561Z,11.63
2023-04-09T06:23:35.898Z,11.35
2023-04-09T06:26:03.204Z,10.97
2023-04-09T06:28:31.565Z,11.25
2023-04-09T06:30:59.011Z,10.57
2023-04-09T06:33:26.397Z,9.57
2023-04-09T06:35:53.699Z,9.02
2023-04-09T06:38:20.953Z,8.60
2023-04-09T06:40:48.240Z,8.43
2023-04-09T06:43:15.639Z,8.73
2023-04-09T06:45:50.980Z,9.45
2023-04-09T06:48:18.358Z,8.30
2023-04-09T06:50:45.940Z,9.07
2023-04-09T06:53:13.295Z,7.82
2023-04-09T06:55:41.117Z,8.52
2023-04-09T06:58:08.434Z,9.00
2023-04-09T07:00:35.841Z,8.57
2023-04-09T07:03:03.392Z,8.47
2023-04-09T07:05:31.343Z,8.25
2023-04-09T07:07:58.614Z,8.57
2023-04-09T07:10:25.988Z,8.45
2023-04-09T07:12:53.265Z,8.48
2023-04-09T07:15:20.629Z,8.17
2023-04-09T07:17:47.977Z,8.38
2023-04-09T07:20:15.687Z,8.75
2023-04-09T07:22:43.051Z,8.68
2023-04-09T07:25:10.510Z,8.90
2023-04-09T07:27:37.826Z,8.17
2023-04-09T07:30:05.655Z,8.18
2023-04-09T07:32:32.980Z,9.48
2023-04-09T07:35:00.635Z,8.50
2023-04-09T07:37:28.009Z,8.02
2023-04-09T07:39:55.586Z,8.77
2023-04-09T07:42:23.069Z,8.57
2023-04-09T07:44:50.442Z,7.95
2023-04-09T07:47:17.785Z,8.35
2023-04-09T07:49:45.083Z,8.73
2023-04-09T07:52:12.392Z,8.30
2023-04-09T07:54:39.709Z,8.35
2023-04-09T07:57:07.055Z,8.82
2023-04-09T07:59:34.836Z,8.82
2023-04-09T08:02:02.317Z,8.25
2023-04-09T08:04:29.779Z,9.03
2023-04-09T08:06:57.239Z,8.55
2023-04-09T08:09:24.524Z,9.15
2023-04-09T08:11:51.841Z,8.93
2023-04-09T08:14:19.149Z,8.35
2023-04-09T08:16:47.635Z,8.97
2023-04-09T08:19:15.958Z,10.02
2023-04-09T08:21:43.402Z,9.20
2023-04-09T08:24:11.835Z,9.88
2023-04-09T08:26:39.819Z,9.15
2023-04-09T08:29:07.828Z,9.70
2023-04-09T08:31:36.381Z,8.88
2023-04-09T08:34:03.988Z,9.18
2023-04-09T08:36:32.488Z,9.05
2023-04-09T08:39:00.665Z,8.52
2023-04-09T08:41:31.625Z,9.57
2023-04-09T08:43:59.950Z,7.88
2023-04-09T08:46:27.932Z,7.68
2023-04-09T08:48:55.575Z,8.85
2023-04-09T08:51:24.054Z,8.27
2023-04-09T08:54:03.939Z,8.70
2023-04-09T08:56:31.860Z,8.77
2023-04-09T08:58:59.289Z,8.70
2023-04-09T09:01:30.663Z,7.65
2023-04-09T09:04:01.077Z,7.20
2023-04-09T09:06:32.953Z,7.37
2023-04-09T09:09:07.384Z,7.43
2023-04-09T09:11:36.179Z,6.75
2023-04-09T09:14:07.711Z,5.88
2023-04-09T09:16:35.946Z,6.00
2023-04-09T09:19:03.263Z,5.93
2023-04-09T09:21:30.702Z,5.22
2023-04-09T09:23:58.312Z,6.00
2023-04-09T09:26:27.486Z,5.82
2023-04-09T09:28:55.408Z,6.80
2023-04-09T09:31:23.213Z,6.80
2023-04-09T09:33:51.227Z,6.68
2023-04-09T09:36:38.700Z,6.22
2023-04-09T09:39:10.504Z,6.60
2023-04-09T09:41:38.180Z,6.03
2023-04-09T09:44:07.301Z,6.17
2023-04-09T09:46:38.829Z,5.85
2023-04-09T09:49:06.815Z,5.65
2023-04-09T09:51:37.207Z,5.55
2023-04-09T09:54:04.440Z,6.40
2023-04-09T09:56:34.751Z,5.60
2023-04-09T09:59:06.711Z,5.40
2023-04-09T10:01:35.379Z,5.97
2023-04-09T10:04:04.088Z,6.45
2023-04-09T10:06:34.176Z,6.32
2023-04-09T10:09:04.293Z,5.77
2023-04-09T10:11:33.353Z,6.55
2023-04-09T10:14:00.811Z,6.50
2023-04-09T10:16:28.467Z,6.47
2023-04-09T10:18:56.384Z,6.90
2023-04-09T10:21:30.598Z,7.23
2023-04-09T10:23:58.049Z,6.93
2023-04-09T10:26:27.827Z,7.60
2023-04-09T10:29:14.715Z,7.57
2023-04-09T10:31:55.281Z,7.13
2023-04-09T10:34:23.743Z,6.50
2023-04-09T10:36:53.532Z,7.25
2023-04-09T10:39:21.087Z,7.30
2023-04-09T10:41:48.973Z,7.55
2023-04-09T10:44:23.416Z,7.93
2023-04-09T10:46:53.424Z,7.60
2023-04-09T10:49:24.986Z,7.53
2023-04-09T10:52:01.779Z,7.38
2023-04-09T10:54:35.181Z,7.03
2023-04-09T10:57:11.450Z,7.38
2023-04-09T10:59:56.882Z,6.93
2023-04-09T11:02:39.907Z,7.38
2023-04-09T11:05:24.812Z,7.03
2023-04-09T11:08:12.326Z,6.63
2023-04-09T11:10:44.867Z,6.97
2023-04-09T11:13:13.502Z,7.20
2023-04-09T11:15:40.916Z,6.75
2023-04-09T11:18:09.933Z,6.72
2023-04-09T11:20:37.367Z,6.93
2023-04-09T11:23:04.694Z,8.05
2023-04-09T11:25:32.834Z,7.50
2023-04-09T11:28:00.968Z,7.57
2023-04-09T11:30:29.091Z,7.55
2023-04-09T11:32:56.403Z,6.88
2023-04-09T11:35:23.895Z,7.70
2023-04-09T11:37:52.459Z,7.97
2023-04-09T11:40:23.480Z,7.40
2023-04-09T11:42:51.905Z,6.85
2023-04-09T11:45:20.541Z,6.75
2023-04-09T11:47:48.073Z,7.20
2023-04-09T11:50:16.291Z,7.10
2023-04-09T11:52:44.790Z,6.97
2023-04-09T11:55:12.335Z,7.63
2023-04-09T11:57:42.913Z,6.43
2023-04-09T12:00:17.137Z,6.55
2023-04-09T12:02:49.051Z,6.50
2023-04-09T12:05:26.289Z,6.43
2023-04-09T12:07:57.312Z,6.80
2023-04-09T12:10:29.091Z,7.00
2023-04-09T12:13:07.097Z,7.18
2023-04-09T12:15:35.900Z,6.90
2023-04-09T12:18:03.810Z,6.75
2023-04-09T12:20:36.256Z,6.55
2023-04-09T12:23:04.302Z,6.82
2023-04-09T12:25:35.588Z,7.35
2023-04-09T12:28:03.511Z,6.73
2023-04-09T12:30:31.071Z,7.10
2023-04-09T12:32:58.404Z,6.90
2023-04-09T12:35:25.911Z,6.18
2023-04-09T12:37:53.299Z,6.00
2023-04-09T12:40:21.047Z,6.27
2023-04-09T12:42:48.341Z,6.55
2023-04-09T12:45:16.769Z,6.28
2023-04-09T12:47:44.397Z,6.10
2023-04-09T12:50:12.562Z,6.00
2023-04-09T12:52:39.811Z,6.07
2023-04-09T12:55:07.598Z,6.25
2023-04-09T12:57:37.649Z,7.05
2023-04-09T13:00:06.272Z,5.97
2023-04-09T13:02:34.394Z,6.55
2023-04-09T13:05:01.811Z,6.03
2023-04-09T13:07:29.572Z,6.40
2023-04-09T13:09:57.133Z,6.57
2023-04-09T13:12:24.623Z,6.18
2023-04-09T13:14:54.062Z,6.45
2023-04-09T13:17:21.663Z,6.90
2023-04-09T13:19:50.384Z,6.85
2023-04-09T13:22:18.521Z,6.82
2023-04-09T13:24:45.848Z,6.53
2023-04-09T13:27:13.236Z,6.22
2023-04-09T13:29:42.424Z,6.20
2023-04-09T13:32:11.199Z,6.03
2023-04-09T13:34:38.809Z,6.18
2023-04-09T13:37:06.162Z,6.25
2023-04-09T13:39:33.530Z,6.05
2023-04-09T13:42:12.548Z,5.40
2023-04-09T13:44:42.498Z,5.88
2023-04-09T13:47:12.893Z,6.00
2023-04-09T13:49:40.813Z,5.40
2023-04-09T13:52:08.108Z,6.20
2023-04-09T13:54:35.834Z,6.60
2023-04-09T13:57:03.549Z,5.68
2023-04-09T13:59:31.042Z,5.85
2023-04-09T14:01:58.603Z,5.85
2023-04-09T14:04:26.121Z,5.65
2023-04-09T14:06:53.521Z,7.33
2023-04-09T14:09:21.120Z,6.90
2023-04-09T14:11:49.486Z,7.18
2023-04-09T14:14:17.674Z,6.57
2023-04-09T14:16:46.009Z,6.40
2023-04-09T14:19:13.404Z,6.60
2023-04-09T14:21:40.824Z,6.38
2023-04-09T14:24:08.185Z,7.80
2023-04-09T14:26:35.453Z,6.45
2023-04-09T14:29:02.894Z,6.97
2023-04-09T14:31:30.447Z,6.63
2023-04-09T14:33:58.976Z,6.75
2023-04-09T14:36:27.360Z,6.18
2023-04-09T14:38:56.995Z,6.85
2023-04-09T14:41:25.235Z,6.38
2023-04-09T14:43:52.593Z,6.63
2023-04-09T14:46:20.390Z,6.93
2023-04-09T14:48:47.771Z,6.90
2023-04-09T14:51:15.139Z,6.40
2023-04-09T14:53:42.623Z,6.10
2023-04-09T14:56:09.981Z,6.23
2023-04-09T14:58:37.456Z,6.20
2023-04-09T15:01:05.020Z,6.00
2023-04-09T15:03:32.492Z,6.18
2023-04-09T15:06:00.104Z,6.50
2023-04-09T15:08:27.453Z,6.70
2023-04-09T15:10:54.816Z,6.32
2023-04-09T15:13:22.134Z,6.68
2023-04-09T15:15:49.439Z,6.00
2023-04-09T15:18:16.755Z,6.47
2023-04-09T15:20:43.989Z,5.30
2023-04-09T15:23:11.280Z,5.70
2023-04-09T15:25:39.131Z,6.28
2023-04-09T15:28:06.594Z,5.90
2023-04-09T15:30:35.561Z,6.20
2023-04-09T15:33:03.128Z,6.00
2023-04-09T15:35:30.727Z,6.40
2023-04-09T15:38:00.221Z,6.25
2023-04-09T15:40:29.061Z,6.00
2023-04-09T15:42:56.354Z,6.00
2023-04-09T15:45:23.691Z,6.00
2023-04-09T15:47:50.971Z,6.28
2023-04-09T15:50:18.296Z,6.05
2023-04-09T15:52:45.555Z,6.28
2023-04-09T15:55:12.818Z,5.95
2023-04-09T15:57:40.135Z,6.10
2023-04-09T16:00:11.030Z,5.93
2023-04-09T16:02:41.514Z,5.72
2023-04-09T16:05:08.863Z,6.25
2023-04-09T16:07:36.237Z,6.47
2023-04-09T16:10:04.729Z,6.60
2023-04-09T16:12:32.060Z,6.93
2023-04-09T16:14:59.447Z,6.55
2023-04-09T16:17:26.797Z,6.38
2023-04-09T16:19:54.057Z,6.75
2023-04-09T16:22:21.403Z,7.30
2023-04-09T16:24:48.648Z,7.22
2023-04-09T16:27:16.756Z,7.10
2023-04-09T16:29:44.066Z,6.88
2023-04-09T16:32:11.423Z,6.85
2023-04-09T16:34:38.684Z,6.87
2023-04-09T16:37:06.039Z,16.58
2023-04-09T16:39:33.378Z,9.98
2023-04-09T16:42:01.783Z,8.50
2023-04-09T16:44:29.096Z,7.72
2023-04-09T16:46:56.576Z,7.20
2023-04-09T16:49:23.901Z,7.88
2023-04-09T16:51:53.131Z,8.88
2023-04-09T16:54:20.803Z,8.20
2023-04-09T16:56:48.819Z,8.23
2023-04-09T16:59:18.481Z,9.00
2023-04-09T17:01:45.978Z,8.45
2023-04-09T17:04:13.654Z,8.70
2023-04-09T17:06:41.166Z,8.98
2023-04-09T17:09:08.481Z,9.00
2023-04-09T17:11:37.470Z,9.37
2023-04-09T17:14:05.048Z,9.85
2023-04-09T17:16:32.387Z,10.00
2023-04-09T17:18:59.651Z,11.23
2023-04-09T17:21:27.330Z,12.40
2023-04-09T17:23:54.653Z,16.93
2023-04-09T17:26:21.957Z,22.80
2023-04-09T17:28:49.263Z,32.30
2023-04-09T17:31:16.650Z,27.23
2023-04-09T17:33:48.099Z,25.45
2023-04-09T17:36:18.267Z,22.77
2023-04-09T17:38:46.504Z,22.50
2023-04-09T17:41:13.811Z,23.15
2023-04-09T17:43:41.268Z,25.85
2023-04-09T17:46:08.917Z,21.98
2023-04-09T17:48:36.907Z,15.57
2023-04-09T17:51:04.933Z,16.30
2023-04-09T17:53:32.228Z,15.20
2023-04-09T17:55:59.544Z,15.32
2023-04-09T17:58:27.102Z,14.07
2023-04-09T18:00:55.537Z,12.30
2023-04-09T18:03:23.614Z,11.60
2023-04-09T18:05:51.639Z,12.98
2023-04-09T18:08:18.923Z,12.63
2023-04-09T18:11:01.615Z,13.45
2023-04-09T18:13:38.683Z,14.83
2023-04-09T18:16:23.286Z,13.82
2023-04-09T18:18:52.606Z,14.93
2023-04-09T18:21:20.178Z,15.13
2023-04-09T18:23:47.447Z,15.80
2023-04-09T18:26:14.986Z,17.30
2023-04-09T18:28:42.543Z,16.83
2023-04-09T18:31:11.535Z,16.98
2023-04-09T18:33:38.850Z,17.13
2023-04-09T18:36:06.429Z,16.17
2023-04-09T18:38:34.988Z,16.73
2023-04-09T18:41:02.342Z,16.30
2023-04-09T18:43:29.693Z,16.85
2023-04-09T18:45:57.246Z,18.52
2023-04-09T18:48:24.602Z,15.77
2023-04-09T18:50:52.184Z,15.13
2023-04-09T18:53:19.831Z,13.55
2023-04-09T18:55:47.190Z,14.07
2023-04-09T18:58:15.769Z,13.55
2023-04-09T19:00:43.665Z,13.82
2023-04-09T19:03:12.198Z,14.77
2023-04-09T19:05:39.805Z,14.55
2023-04-09T19:08:07.540Z,17.02
2023-04-09T19:10:34.790Z,12.55
2023-04-09T19:13:02.187Z,14.73
2023-04-09T19:15:29.571Z,15.00
2023-04-09T19:17:57.084Z,14.15
2023-04-09T19:20:24.375Z,14.68
2023-04-09T19:22:54.366Z,15.68
2023-04-09T19:25:22.786Z,14.25
2023-04-09T19:27:50.325Z,14.63
2023-04-09T19:30:17.618Z,14.52
2023-04-09T19:32:45.567Z,16.05
2023-04-09T19:35:12.959Z,13.85
2023-04-09T19:37:40.401Z,13.75
2023-04-09T19:40:09.085Z,14.67
2023-04-09T19:42:36.424Z,15.27
2023-04-09T19:45:03.863Z,14.50
2023-04-09T19:47:31.283Z,16.73
2023-04-09T19:49:58.586Z,15.60
2023-04-09T19:52:26.061Z,15.07
2023-04-09T19:54:55.002Z,15.82
2023-04-09T19:57:22.712Z,15.80
2023-04-09T19:59:52.154Z,15.15
2023-04-09T20:02:19.705Z,12.70
2023-04-09T20:04:47.272Z,12.63
2023-04-09T20:07:15.596Z,12.65
2023-04-09T20:09:43.626Z,12.63
2023-04-09T20:12:11.130Z,11.13
2023-04-09T20:14:39.354Z,11.13
2023-04-09T20:17:08.925Z,10.67
2023-04-09T20:19:37.554Z,11.05
2023-04-09T20:22:04.967Z,10.98
2023-04-09T20:24:32.343Z,10.98
2023-04-09T20:26:59.874Z,10.85
2023-04-09T20:29:27.288Z,11.07
2023-04-09T20:31:54.843Z,11.27
2023-04-09T20:34:29.000Z,11.35
2023-04-09T20:36:56.729Z,10.93
2023-04-09T20:39:27.094Z,11.55
2023-04-09T20:41:55.125Z,11.60
2023-04-09T20:44:22.995Z,11.40
2023-04-09T20:46:51.012Z,11.27
2023-04-09T20:49:18.272Z,11.35
2023-04-09T20:51:46.385Z,10.45
2023-04-09T20:54:13.772Z,10.77
2023-04-09T20:56:41.524Z,10.05
2023-04-09T20:59:08.897Z,10.07
2023-04-09T21:01:36.277Z,9.65
2023-04-09T21:04:04.077Z,9.93
2023-04-09T21:06:31.823Z,9.87
2023-04-09T21:08:59.860Z,9.93
2023-04-09T21:11:27.286Z,9.48
2023-04-09T21:13:55.543Z,8.98
2023-04-09T21:16:23.217Z,9.48
2023-04-09T21:18:51.110Z,9.37
2023-04-09T21:21:18.626Z,9.93
2023-04-09T21:23:48.794Z,9.98
2023-04-09T21:26:16.127Z,9.68
2023-04-09T21:28:43.610Z,10.18
2023-04-09T21:31:11.428Z,10.00
2023-04-09T21:33:41.616Z,10.63
2023-04-09T21:36:09.046Z,10.35
2023-04-09T21:38:36.410Z,11.43
2023-04-09T21:41:04.051Z,11.40
2023-04-09T21:43:31.334Z,10.60
2023-04-09T21:45:58.659Z,10.45
2023-04-09T21:48:26.565Z,11.25
2023-04-09T21:50:53.811Z,10.98
2023-04-09T21:53:21.264Z,11.70
2023-04-09T21:55:48.574Z,10.83
2023-04-09T21:58:15.933Z,9.85
2023-04-09T22:00:43.138Z,9.35
2023-04-09T22:03:11.334Z,9.52
2023-04-09T22:05:38.710Z,10.20
2023-04-09T22:08:06.201Z,9.40
2023-04-09T22:10:33.517Z,10.23
2023-04-09T22:13:01.212Z,9.95
2023-04-09T22:15:29.102Z,10.00
2023-04-09T22:17:56.479Z,8.70
2023-04-09T22:20:24.819Z,9.80
2023-04-09T22:22:53.771Z,8.50
2023-04-09T22:25:21.266Z,9.98
2023-04-09T22:27:52.360Z,9.48
2023-04-09T22:30:21.924Z,9.25
2023-04-09T22:32:50.019Z,9.10
2023-04-09T22:35:18.382Z,10.13
2023-04-09T22:37:46.962Z,9.65
2023-04-09T22:40:15.567Z,9.68
2023-04-09T22:42:43.580Z,9.85
2023-04-09T22:45:12.322Z,9.37
2023-04-09T22:47:39.795Z,8.60
2023-04-09T22:50:08.313Z,8.80
2023-04-09T22:52:35.540Z,8.65
2023-04-09T22:55:03.127Z,9.18
2023-04-09T22:57:30.429Z,8.17
2023-04-09T22:59:58.109Z,8.35
2023-04-09T23:02:26.230Z,8.40
2023-04-09T23:04:53.670Z,8.38
2023-04-09T23:07:21.142Z,8.65
2023-04-09T23:09:48.421Z,8.17
2023-04-09T23:12:15.663Z,7.68
2023-04-09T23:14:43.009Z,7.68
2023-04-09T23:17:10.394Z,7.85
2023-04-09T23:19:37.651Z,7.93
2023-04-09T23:22:05.711Z,8.87
2023-04-09T23:24:33.026Z,8.38
2023-04-09T23:27:00.471Z,7.32
2023-04-09T23:29:27.772Z,7.68
2023-04-09T23:31:55.146Z,7.28
2023-04-09T23:34:22.487Z,7.70
2023-04-09T23:36:49.729Z,7.22
2023-04-09T23:39:17.056Z,7.30
2023-04-09T23:41:44.352Z,8.27
2023-04-09T23:44:11.676Z,7.68
2023-04-09T23:46:38.984Z,7.77
2023-04-09T23:49:06.462Z,7.88
2023-04-09T23:51:33.728Z,7.88
2023-04-09T23:54:01.963Z,8.68
2023-04-09T23:56:29.616Z,7.43
2023-04-09T23:58:56.977Z,7.07
